Middle Georgia Regional Airport
KMCN : now visible

Airfield :











YOU CAN JOIN US ON...

 
LOGIN :

Register | Disclaimer

   EN    FR    IT 

 









Legend :    VFR   Marginal VFR   IFR   Intensive IFR   Very Intensive IFR
Visi :
Ceiling :
>= 8 km
>= 3000ft
5 to 8 km
1000 to 3000 ft
1500m to 5 km
500 to 1000 ft
800 to 1500m
200 to 500 ft
< 800m
< 200 ft
Symbols :   Thunderstorms  Fog  Heavy snow  Heavy precipitations  Wind > 20 kt






- Airport Elevation : 354 ft
- IATA code : MCN


KMCN - Middle Georgia Regional

CURRENT METAR :
  • 170216Z AUTO 07005KT 3SM BR OVC006 09/07 A3012 RMK AO2 T00890072

EXPIRED METARs :
  • 170153Z AUTO 04004KT 2 1/2SM BR OVC006 09/07 A3014 RMK AO2 SLP205 T00890072
  • 170053Z AUTO 02005KT 9SM OVC006 09/07 A3013 RMK AO2 SLP203 T00890072

TAF KMCN
Valid from the 17 at 00:00 until the 18 at 00:00 UTC


162320Z 1700/1724 VRB03KT 6SM BR OVC005
FM170400 VRB03KT 3SM BR BKN003
FM171600 08004KT 6SM BR BKN006
FM171800 09004KT P6SM BKN008
FM172100 11005KT P6SM OVC015



MET'MAP, your aeronautical weather chart ! - Copyright ORBIFLY December 2007 - Disclaimer

ORBIFLY MET'MAP TEAM :

Programming & Development : Alexandra Zaïnal
Concept & original design : Baudouin d'Aumeries
Assistance for programming : Marc-Olivier Méhu
Technical & hardware support : Manuel Goepfert

Contact : metmap@orbifly.com




SOURCES & CREDITS :

   NOAA       Earth
Advisory